x

La Perouse Bank (46206) Wave Buoy

1:00 - Tue 23rd Sep 2014 All times are PDT. -7 hours from GMT.

  • Sig Wave height 5.6ft
  • Peak Period 9s
  • Wind
    16mph, 20mph gusts
  • Sea Temp 55°f
  • Aire Temp 56°f
  • Sea Pressure 1010.7mb
  • La Perouse Bank
  • La Perouse Bank

More Historic Weather Station data

Upgrade to MSW Pro to gain access to the past 30 days of data for over 8000 Wavebouys and Weather Stations around the globe.

Join Pro

Comparision Forecast

View Surf forecast
   
mar 09/23 1:00 5.5ft 9s 16 20 mph 1010.7mb 55f 56f
12:00 6ft 8s 16 18 mph 1010.9mb 56f 56f
lun 09/22 11:00 6ft 8s 18 22 mph 1011.2mb 56f 56f
10:00 6ft 8s 18 22 mph 1011.8mb 57f 56f
9:00 5.5ft 9s 11 13 mph 1012.4mb 56f 56f
8:00 6ft 6s 7 9 mph 1012.7mb 56f 57f
7:00 5.5ft 6s 4 7 mph 1012.8mb 56f 57f
6:00 6ft 6s 4 7 mph 1012.9mb 57f 58f
5:00 6ft 10s 4
mph
1012.9mb 57f 58f
4:00 6ft 6s 2 4 mph 1012.9mb 56f 58f
3:00 6.5ft 10s 16 20 mph 1012.7mb 55f 57f
2:00 6.5ft 10s 18 25 mph 1012.6mb 55f 57f
12:00 5.5ft 10s 22 29 mph 1012mb 55f 57f
11:00 5ft 10s 20 25 mph 1012.6mb 55f 56f
10:00 5ft 9s 20 22 mph 1012.8mb 55f 56f
9:00 4.5ft 10s 16 18 mph 1013.3mb 55f 56f
8:00 5ft 10s 13 18 mph 1013.1mb 54f 56f
7:00 5ft 10s 9 13 mph 1013.2mb 54f 56f
6:00 5ft 10s 13 16 mph 1012.8mb 54f 56f
5:00 4.5ft 10s 13 16 mph 1013.1mb 54f 55f
4:00 5ft 10s 11 13 mph 1013.3mb 54f 54f
3:00 5ft 10s 9 11 mph 1013.5mb 54f 55f
2:00 5ft 10s 9 11 mph 1013.8mb 53f 54f
1:00 5ft 10s 9 13 mph 1013.2mb 52f 54f
12:00 5ft 10s 9 11 mph 1013.1mb 52f 54f
dom 09/21 11:00 5ft 10s 11 13 mph 1013.1mb 54f 54f
10:00 4.5ft 11s 9
mph
1013mb 54f 54f
9:00 5ft 11s 9 11 mph 1012.8mb 56f 54f
8:00 5ft 11s 9 11 mph 1012.6mb 56f 55f
7:00 5ft 10s 7 11 mph 1012.7mb 56f 55f
6:00 5ft 10s 9 11 mph 1012.8mb 56f 55f
5:00 5.5ft 10s 11 13 mph 1012.6mb 56f 55f
4:00 5ft 10s 11 13 mph 1012.7mb 56f 56f
3:00 5.5ft 11s 9 11 mph 1012.8mb 55f 56f
2:00 6ft 11s 13 16 mph 1012.7mb 54f 56f
1:00 5.5ft 11s 16 18 mph 1012.4mb 54f 56f
12:00 5ft 10s 18 20 mph 1012mb 53f 56f
11:00 5.5ft 12s 18 22 mph 1011.7mb 54f 56f
10:00 6ft 11s 20 22 mph 1011.2mb 53f 55f
9:00 6ft 12s 22 27 mph 1010.7mb 53f 55f
8:00 6ft 12s 22 27 mph 1010.4mb 53f 55f
7:00 6ft 11s 22 27 mph 1009.7mb 55f 56f
6:00 6ft 11s 18 22 mph 1009.2mb 55f 57f
5:00 6ft 12s 18 20 mph 1009.5mb 54f 58f
4:00 6ft 12s 13 18 mph 1009.6mb 54f 57f
3:00 6ft 10s 16 22 mph 1009.7mb 55f 60f
2:00 5.5ft 11s 13 16 mph 1009.8mb 56f 59f
1:00 6ft 11s 7 9 mph 1010mb 55f 58f
12:00 6ft 11s 7 9 mph 1010.6mb 55f 57f
sáb 09/20 11:00 6ft 11s 7
mph
1011.1mb 56f 56f
10:00 6ft 12s 4 7 mph 1011.6mb 55f 56f
9:00 6ft 10s 2 4 mph 1012.1mb 55f 58f
8:00 5.5ft 12s 2 4 mph 1012.7mb 56f 58f
7:00 6ft 12s 4 7 mph 1013.4mb 56f 56f
6:00 5.5ft 11s  -  2 mph 1013.9mb 57f 60f
5:00 6ft 13s 4 7 mph 1014.7mb 56f 58f
4:00 6.5ft 12s 4 7 mph 1015.9mb 55f 57f
3:00 6.5ft 12s 7 9 mph 1016.7mb 55f 56f
2:00 7ft 12s 7
mph
1017.6mb 57f 57f
1:00 7ft 12s 4
mph
1018.4mb 56f 58f
12:00 8.5ft 12s  -  2 mph 1019.2mb 56f 58f
11:00 9.5ft 12s  -  2 mph 1019.6mb 55f 56f
10:00 10ft 11s 2 4 mph 1020mb 54f 54f
9:00 10ft 12s 4
mph
1020.2mb 54f 54f
8:00 10ft 12s 4
mph
1020.1mb 53f 53f
7:00 10.5ft 12s 2 4 mph 1020.3mb 53f 52f
6:00 9ft 12s 2 4 mph 1020.5mb 53f 53f
5:00 9.5ft 13s 4 7 mph 1020.5mb 53f 53f
4:00 10ft 14s 4 7 mph 1021.1mb 53f 53f
3:00 10ft 12s 4
mph
1021.2mb 54f 52f
2:00 9.5ft 13s 4 7 mph 1021.3mb 54f 53f
1:00 10ft 13s  -  2 mph 1021.3mb 54f 53f
12:00 11ft 13s 2 4 mph 1021.5mb 54f 52f
vie 09/19 11:00 11ft 12s 4 7 mph 1021.5mb 55f 53f
10:00 12ft 12s 2 7 mph 1021.5mb 54f 53f
9:00 11.5ft 11s 2 4 mph 1021mb 54f 54f
8:00 12.5ft 12s 4 9 mph 1020.6mb 53f 54f
7:00 11.5ft 10s 4 7 mph 1020.7mb 54f 54f
6:00 9ft 10s 4 7 mph 1020.7mb 55f 55f
5:00 8ft 10s 4 9 mph 1020.8mb 55f 56f
4:00 7ft 10s 2 4 mph 1020.5mb 54f 57f
3:00 7ft 10s 4 7 mph 1020.2mb 55f 56f
2:00 6ft 10s  -  2 mph 1019.8mb 55f 55f
1:00 6ft 9s 7
mph
1019.6mb 55f 55f
12:00 6ft 9s 4
mph
1019.1mb 54f 55f
11:00 6.5ft 10s 7 9 mph 1018.5mb 53f 55f
10:00 6ft 9s 9
mph
1017.6mb 53f 55f